首页
METAR-TAF:

METAR-TAF

机场 :

Schoolcraft County Airport

Manistique, 密歇根州, 美国

纬度: 45-58-29N, 经度: 086-10-19W, 海拔: 209米

当前天气观测

该预报发布于13分钟前的20:37 UTC
风速12节,风向北转西北,有时为17节阵风
温度 19°C
湿度 68%
气压 1012 hPa
能見度: 16.1公里
散云层高于2800英尺
散云层高于3900英尺
散云层高于12000英尺

METAR: KISQ 232037Z AUTO 34012G17KT 10SM SCT028 SCT039 SCT120 19/13 A2988 RMK AO2 T01930130

时间: 16:50 (20:50 UTC)


TAF: 丢失

超过4000个机场的气象观测和天气预报(METAR&TAF报告)。

可查询的气象台以黄色和红色小点在地图上表示。

将鼠标移到小点上方,可查看气象台名称。

然后点击查看天气观测和预报。

如需切换地图:点击带黑十字的绿色按钮放大地图;点击带横线的绿色按钮缩小地图;或者点击绿色箭头查看邻近地区的地图。


METAR-TAF: